Terminal Aerodrome Forecast
Issued by NWS

Home | Current Version | Previous Version | Text Only | Print | Product List | Glossary On
Versions: 1 2 3 4 5 6 7 8 9 10 11 12 13 14 15 16 17 18 19
000
FTUS43 KEAX 301129
TAFSTJ
TAF
KSTJ 301129Z 3012/3112 10008KT 6SM BR VCSH OVC008
     FM302000 36010KT P6SM VCSH OVC010
     FM310600 35006KT 5SM BR OVC012=

USA.gov is the U.S. government's official web portal to all federal, state and local government web resources and services.